createdAt,value
2018-08-24T00:00:41.224Z,5.47
2018-08-24T00:03:09.912Z,5.57
2018-08-24T00:05:38.775Z,5.33
2018-08-24T00:08:07.402Z,5.37
2018-08-24T00:10:35.939Z,6.20
2018-08-24T00:13:04.443Z,5.97
2018-08-24T00:15:33.057Z,5.67
2018-08-24T00:18:01.780Z,5.03
2018-08-24T00:20:30.345Z,5.40
2018-08-24T00:22:58.849Z,5.30
2018-08-24T00:25:27.485Z,5.43
2018-08-24T00:27:56.511Z,5.80
2018-08-24T00:30:25.048Z,5.47
2018-08-24T00:32:53.505Z,5.50
2018-08-24T00:35:21.996Z,5.50
2018-08-24T00:37:50.659Z,5.73
2018-08-24T00:40:19.150Z,5.27
2018-08-24T00:42:47.795Z,5.60
2018-08-24T00:45:16.249Z,5.70
2018-08-24T00:47:44.816Z,5.93
2018-08-24T00:50:13.368Z,5.57
2018-08-24T00:52:41.908Z,4.87
2018-08-24T00:55:10.511Z,5.47
2018-08-24T00:57:39.202Z,5.13
2018-08-24T01:00:08.254Z,5.20
2018-08-24T01:02:36.763Z,5.13
2018-08-24T01:05:05.385Z,5.27
2018-08-24T01:07:39.607Z,4.50
2018-08-24T01:10:13.300Z,5.37
2018-08-24T01:12:41.875Z,5.60
2018-08-24T01:15:10.660Z,5.00
2018-08-24T01:17:44.730Z,4.83
2018-08-24T01:20:13.310Z,4.30
2018-08-24T01:22:41.974Z,4.80
2018-08-24T01:25:10.682Z,4.77
2018-08-24T01:27:39.311Z,4.67
2018-08-24T01:30:07.976Z,5.37
2018-08-24T01:32:39.460Z,5.13
2018-08-24T01:35:09.551Z,4.70
2018-08-24T01:37:38.952Z,5.33
2018-08-24T01:40:10.255Z,4.63
2018-08-24T01:42:41.109Z,5.03
2018-08-24T01:45:09.691Z,5.07
2018-08-24T01:47:38.252Z,4.57
2018-08-24T01:50:08.470Z,5.40
2018-08-24T01:52:37.862Z,5.20
2018-08-24T01:55:06.809Z,4.90
2018-08-24T01:57:35.328Z,4.70
2018-08-24T02:00:04.084Z,5.23
2018-08-24T02:02:34.852Z,4.80
2018-08-24T02:05:03.520Z,5.00
2018-08-24T02:07:32.280Z,5.47
2018-08-24T02:10:00.954Z,5.40
2018-08-24T02:12:35.003Z,5.17
2018-08-24T02:15:03.664Z,5.10
2018-08-24T02:17:37.552Z,5.13
2018-08-24T02:20:11.291Z,5.37
2018-08-24T02:22:39.902Z,5.00
2018-08-24T02:25:08.654Z,4.70
2018-08-24T02:27:37.281Z,4.90
2018-08-24T02:30:06.065Z,5.23
2018-08-24T02:32:34.684Z,5.27
2018-08-24T02:35:03.354Z,4.63
2018-08-24T02:37:32.141Z,5.47
2018-08-24T02:40:00.750Z,4.70
2018-08-24T02:42:29.311Z,5.03
2018-08-24T02:44:57.989Z,5.50
2018-08-24T02:47:26.633Z,5.17
2018-08-24T02:49:55.282Z,5.67
2018-08-24T02:52:23.881Z,5.20
2018-08-24T02:54:52.431Z,5.43
2018-08-24T02:57:20.967Z,5.40
2018-08-24T02:59:50.521Z,5.10
2018-08-24T03:02:19.818Z,5.57
2018-08-24T03:04:48.544Z,5.53
2018-08-24T03:07:17.051Z,5.70
2018-08-24T03:09:45.558Z,5.80
2018-08-24T03:12:14.059Z,6.03
2018-08-24T03:14:42.927Z,5.40
2018-08-24T03:17:17.692Z,5.90
2018-08-24T03:19:46.266Z,5.47
2018-08-24T03:22:14.839Z,5.13
2018-08-24T03:24:43.411Z,5.57
2018-08-24T03:27:11.978Z,5.70
2018-08-24T03:29:40.678Z,5.53
2018-08-24T03:32:10.172Z,4.93
2018-08-24T03:34:38.730Z,5.73
2018-08-24T03:37:07.496Z,5.73
2018-08-24T03:39:36.057Z,5.80
2018-08-24T03:42:04.617Z,6.00
2018-08-24T03:44:33.811Z,5.87
2018-08-24T03:47:02.504Z,5.97
2018-08-24T03:49:31.042Z,6.33
2018-08-24T03:51:59.655Z,5.97
2018-08-24T03:54:28.203Z,5.80
2018-08-24T03:56:58.053Z,5.90
2018-08-24T03:59:27.573Z,5.80
2018-08-24T04:01:56.780Z,6.57
2018-08-24T04:04:25.829Z,6.70
2018-08-24T04:06:54.393Z,6.93
2018-08-24T04:09:23.025Z,6.47
2018-08-24T04:11:51.576Z,6.30
2018-08-24T04:14:20.214Z,6.43
2018-08-24T04:16:54.188Z,7.20
2018-08-24T04:19:26.336Z,6.07
2018-08-24T04:21:55.596Z,6.70
2018-08-24T04:24:24.250Z,6.60
2018-08-24T04:26:53.479Z,6.43
2018-08-24T04:29:22.266Z,7.10
2018-08-24T04:31:50.849Z,6.67
2018-08-24T04:34:19.545Z,7.93
2018-08-24T04:36:48.201Z,6.80
2018-08-24T04:39:16.723Z,7.93
2018-08-24T04:41:45.287Z,7.27
2018-08-24T04:44:13.993Z,6.97
2018-08-24T04:46:43.033Z,7.67
2018-08-24T04:49:11.646Z,7.37
2018-08-24T04:51:40.641Z,8.10
2018-08-24T04:54:09.246Z,7.97
2018-08-24T04:56:37.806Z,7.07
2018-08-24T04:59:06.757Z,7.17
2018-08-24T05:01:35.358Z,7.33
2018-08-24T05:04:03.955Z,7.83
2018-08-24T05:06:32.646Z,7.40
2018-08-24T05:09:01.163Z,7.67
2018-08-24T05:11:29.736Z,7.40
2018-08-24T05:13:58.257Z,7.43
2018-08-24T05:16:26.907Z,7.27
2018-08-24T05:18:55.458Z,7.40
2018-08-24T05:21:24.025Z,7.30
2018-08-24T05:23:52.536Z,7.50
2018-08-24T05:26:21.065Z,7.50
2018-08-24T05:28:49.639Z,7.27
2018-08-24T05:31:18.296Z,7.50
2018-08-24T05:33:47.134Z,7.03
2018-08-24T05:36:15.622Z,6.97
2018-08-24T05:38:44.336Z,7.00
2018-08-24T05:41:13.346Z,6.27
2018-08-24T05:43:42.036Z,6.90
2018-08-24T05:46:10.746Z,6.83
2018-08-24T05:48:39.279Z,7.27
2018-08-24T05:51:08.114Z,6.67
2018-08-24T05:53:36.688Z,6.47
2018-08-24T05:56:05.248Z,6.07
2018-08-24T05:58:33.903Z,6.30
2018-08-24T06:01:02.738Z,6.40
2018-08-24T06:03:31.307Z,6.10
2018-08-24T06:06:03.792Z,6.57
2018-08-24T06:08:33.092Z,5.47
2018-08-24T06:11:02.566Z,5.10
2018-08-24T06:13:31.095Z,4.90
2018-08-24T06:15:59.817Z,4.83
2018-08-24T06:18:28.274Z,5.30
2018-08-24T06:20:57.064Z,4.60
2018-08-24T06:23:25.684Z,4.80
2018-08-24T06:25:54.190Z,5.17
2018-08-24T06:28:22.738Z,4.90
2018-08-24T06:30:51.258Z,4.53
2018-08-24T06:33:22.756Z,4.23
2018-08-24T06:35:52.034Z,4.53
2018-08-24T06:38:20.656Z,4.93
2018-08-24T06:40:49.421Z,5.13
2018-08-24T06:43:18.055Z,5.23
2018-08-24T06:45:46.656Z,5.00
2018-08-24T06:48:15.612Z,5.37
2018-08-24T06:50:44.145Z,4.37
2018-08-24T06:53:13.042Z,5.43
2018-08-24T06:55:41.516Z,4.60
2018-08-24T06:58:10.109Z,5.20
2018-08-24T07:00:38.711Z,5.30
2018-08-24T07:03:08.233Z,5.23
2018-08-24T07:05:36.856Z,5.10
2018-08-24T07:08:05.365Z,4.70
2018-08-24T07:10:33.913Z,5.13
2018-08-24T07:13:02.597Z,4.80
2018-08-24T07:15:31.053Z,4.90
2018-08-24T07:18:00.389Z,5.53
2018-08-24T07:20:29.188Z,5.03
2018-08-24T07:22:57.807Z,4.80
2018-08-24T07:25:27.156Z,5.03
2018-08-24T07:27:55.820Z,5.47
2018-08-24T07:30:24.491Z,4.90
2018-08-24T07:32:53.079Z,5.53
2018-08-24T07:35:21.636Z,5.27
2018-08-24T07:37:50.309Z,5.23
2018-08-24T07:40:18.946Z,5.10
2018-08-24T07:42:47.666Z,5.30
2018-08-24T07:45:16.208Z,5.60
2018-08-24T07:47:44.696Z,5.00
2018-08-24T07:50:13.296Z,4.93
2018-08-24T07:52:41.990Z,5.72
2018-08-24T07:55:10.693Z,4.40
2018-08-24T07:57:39.404Z,4.97
2018-08-24T08:00:07.993Z,4.92
2018-08-24T08:02:41.768Z,5.33
2018-08-24T08:05:10.319Z,4.97
2018-08-24T08:07:38.869Z,5.12
2018-08-24T08:10:07.933Z,4.60
2018-08-24T08:12:36.504Z,4.58
2018-08-24T08:15:08.082Z,5.17
2018-08-24T08:17:37.171Z,4.70
2018-08-24T08:20:06.008Z,4.15
2018-08-24T08:22:34.851Z,4.65
2018-08-24T08:25:03.452Z,3.33
2018-08-24T08:27:32.734Z,4.30
2018-08-24T08:30:05.603Z,4.03
2018-08-24T08:32:34.355Z,4.33
2018-08-24T08:35:03.013Z,4.13
2018-08-24T08:37:31.589Z,4.17
2018-08-24T08:40:02.199Z,4.97
2018-08-24T08:42:30.768Z,3.47
2018-08-24T08:44:59.850Z,3.75
2018-08-24T08:47:28.387Z,3.92
2018-08-24T08:49:57.022Z,3.52
2018-08-24T08:52:26.010Z,3.60
2018-08-24T08:54:54.530Z,4.20
2018-08-24T08:57:23.145Z,3.93
2018-08-24T08:59:51.728Z,3.57
2018-08-24T09:02:20.377Z,4.00
2018-08-24T09:04:48.940Z,3.80
2018-08-24T09:07:17.811Z,2.98
2018-08-24T09:09:46.330Z,3.20
2018-08-24T09:12:14.870Z,2.92
2018-08-24T09:14:43.453Z,3.95
2018-08-24T09:17:17.476Z,3.30
2018-08-24T09:19:51.444Z,3.35
2018-08-24T09:22:25.414Z,3.10
2018-08-24T09:25:07.030Z,2.60
2018-08-24T09:27:42.851Z,2.93
2018-08-24T09:30:11.926Z,3.00
2018-08-24T09:32:40.550Z,2.53
2018-08-24T09:35:09.064Z,3.30
2018-08-24T09:37:38.945Z,2.63
2018-08-24T09:40:08.226Z,2.83
2018-08-24T09:42:36.748Z,3.00
2018-08-24T09:45:05.543Z,2.30
2018-08-24T09:47:39.482Z,2.52
2018-08-24T09:51:15.349Z,2.77
2018-08-24T09:53:49.290Z,2.58
2018-08-24T09:56:18.146Z,2.90
2018-08-24T09:58:46.689Z,2.90
2018-08-24T10:01:20.463Z,3.00
2018-08-24T10:03:54.357Z,3.20
2018-08-24T10:06:28.696Z,2.40
2018-08-24T10:08:57.739Z,2.60
2018-08-24T10:11:26.480Z,2.40
2018-08-24T10:13:55.088Z,2.52
2018-08-24T10:16:23.593Z,2.25
2018-08-24T10:18:52.380Z,2.20
2018-08-24T10:21:21.146Z,2.13
2018-08-24T10:23:50.042Z,2.00
2018-08-24T10:26:18.958Z,1.97
2018-08-24T10:28:47.494Z,2.22
2018-08-24T10:31:16.252Z,2.00
2018-08-24T10:33:44.812Z,2.08
2018-08-24T10:36:13.585Z,1.70
2018-08-24T10:38:42.390Z,2.00
2018-08-24T10:41:11.636Z,1.85
2018-08-24T10:43:40.168Z,2.37
2018-08-24T10:46:08.706Z,2.45
2018-08-24T10:48:37.261Z,2.15
2018-08-24T10:51:06.062Z,2.52
2018-08-24T10:53:34.647Z,2.40
2018-08-24T10:56:03.274Z,2.30
2018-08-24T10:58:31.815Z,2.42
2018-08-24T11:01:00.361Z,2.20
2018-08-24T11:03:28.901Z,2.87
2018-08-24T11:05:57.565Z,3.12
2018-08-24T11:08:26.200Z,3.05
2018-08-24T11:10:54.858Z,2.77
2018-08-24T11:13:23.536Z,2.90
2018-08-24T11:15:52.408Z,2.95
2018-08-24T11:18:21.068Z,3.30
2018-08-24T11:20:49.746Z,3.42
2018-08-24T11:23:18.350Z,3.50
2018-08-24T11:25:46.887Z,3.20
2018-08-24T11:28:15.455Z,2.85
2018-08-24T11:30:44.009Z,3.22
2018-08-24T11:33:13.010Z,2.55
2018-08-24T11:35:41.703Z,3.45
2018-08-24T11:38:10.242Z,3.60
2018-08-24T11:40:38.775Z,3.50
2018-08-24T11:43:07.341Z,3.47
2018-08-24T11:45:35.977Z,3.70
2018-08-24T11:48:04.850Z,3.58
2018-08-24T11:50:33.362Z,3.75
2018-08-24T11:53:01.933Z,3.15
2018-08-24T11:55:30.512Z,2.98
2018-08-24T11:57:59.060Z,2.77
2018-08-24T12:00:32.205Z,2.90
2018-08-24T12:03:01.553Z,3.08
2018-08-24T12:05:30.549Z,2.55
2018-08-24T12:07:59.222Z,2.58
2018-08-24T12:10:27.861Z,2.80
2018-08-24T12:12:57.134Z,2.58
2018-08-24T12:15:26.887Z,2.37
2018-08-24T12:17:56.082Z,2.33
2018-08-24T12:20:24.563Z,2.72
2018-08-24T12:22:53.194Z,2.12
2018-08-24T12:25:21.728Z,2.37
2018-08-24T12:27:50.388Z,2.40
2018-08-24T12:30:19.137Z,2.43
2018-08-24T12:32:47.725Z,2.40
2018-08-24T12:35:16.247Z,2.67
2018-08-24T12:37:45.876Z,2.40
2018-08-24T12:40:15.475Z,2.77
2018-08-24T12:42:44.034Z,2.43
2018-08-24T12:45:12.801Z,2.70
2018-08-24T12:47:41.829Z,2.87
2018-08-24T12:50:10.878Z,2.50
2018-08-24T12:52:39.464Z,2.65
2018-08-24T12:55:08.046Z,2.50
2018-08-24T12:57:36.636Z,2.37
2018-08-24T13:00:05.757Z,2.67
2018-08-24T13:02:34.305Z,2.25
2018-08-24T13:05:02.830Z,2.60
2018-08-24T13:07:31.371Z,2.42
2018-08-24T13:09:59.936Z,2.50
2018-08-24T13:12:28.591Z,2.52
2018-08-24T13:14:57.190Z,2.87
2018-08-24T13:17:25.890Z,2.90
2018-08-24T13:19:54.535Z,2.98
2018-08-24T13:22:23.074Z,3.02
2018-08-24T13:24:51.610Z,2.43
2018-08-24T13:27:20.339Z,2.83
2018-08-24T13:29:48.957Z,2.77
2018-08-24T13:32:17.478Z,2.97
2018-08-24T13:34:45.987Z,2.53
2018-08-24T13:37:14.538Z,3.10
2018-08-24T13:39:43.031Z,3.20
2018-08-24T13:42:11.655Z,2.83
2018-08-24T13:44:40.199Z,2.90
2018-08-24T13:47:08.738Z,2.70
2018-08-24T13:49:37.255Z,2.83
2018-08-24T13:52:06.219Z,3.13
2018-08-24T13:54:34.799Z,3.53
2018-08-24T13:57:03.799Z,3.10
2018-08-24T13:59:32.456Z,3.20
2018-08-24T14:02:00.873Z,2.40
2018-08-24T14:04:29.581Z,2.20
2018-08-24T14:06:58.287Z,2.20
2018-08-24T14:09:26.836Z,2.43
2018-08-24T14:11:55.381Z,2.23
2018-08-24T14:14:23.890Z,2.27
2018-08-24T14:16:52.390Z,2.50
2018-08-24T14:19:21.504Z,2.30
2018-08-24T14:21:50.159Z,2.80
2018-08-24T14:24:18.769Z,2.50
2018-08-24T14:26:47.430Z,3.03
2018-08-24T14:29:16.037Z,2.90
2018-08-24T14:31:44.727Z,2.73
2018-08-24T14:34:13.379Z,3.40
2018-08-24T14:36:42.027Z,3.13
2018-08-24T14:39:11.704Z,3.33
2018-08-24T14:41:40.305Z,3.50
2018-08-24T14:44:09.015Z,3.43
2018-08-24T14:46:37.665Z,3.20
2018-08-24T14:49:06.408Z,3.27
2018-08-24T14:51:35.182Z,2.90
2018-08-24T14:54:03.900Z,3.03
2018-08-24T14:56:32.565Z,2.63
2018-08-24T14:59:01.224Z,3.00
2018-08-24T15:01:29.839Z,2.67
2018-08-24T15:03:58.791Z,2.77
2018-08-24T15:06:27.613Z,2.90
2018-08-24T15:08:56.271Z,2.90
2018-08-24T15:11:25.992Z,3.23
2018-08-24T15:13:54.502Z,3.10
2018-08-24T15:16:23.085Z,3.27
2018-08-24T15:18:51.758Z,3.07
2018-08-24T15:21:20.360Z,3.13
2018-08-24T15:23:49.044Z,4.13
2018-08-24T15:26:17.575Z,3.93
2018-08-24T15:28:46.333Z,4.20
2018-08-24T15:31:15.102Z,4.20
2018-08-24T15:33:44.413Z,3.57
2018-08-24T15:36:13.023Z,3.87
2018-08-24T15:38:41.561Z,4.13
2018-08-24T15:41:10.285Z,4.83
2018-08-24T15:43:38.841Z,4.23
2018-08-24T15:46:07.788Z,4.53
2018-08-24T15:48:36.617Z,4.60
2018-08-24T15:51:05.528Z,4.07
2018-08-24T15:53:34.304Z,4.70
2018-08-24T15:56:02.916Z,4.37
2018-08-24T15:58:31.703Z,5.43
2018-08-24T16:01:00.645Z,5.20
2018-08-24T16:03:29.366Z,5.43
2018-08-24T16:05:57.998Z,5.87
2018-08-24T16:08:27.098Z,8.43
2018-08-24T16:10:59.825Z,8.00
2018-08-24T16:13:29.994Z,5.93
2018-08-24T16:18:43.026Z,7.80
2018-08-24T16:21:18.672Z,7.30
2018-08-24T16:23:48.289Z,7.63
2018-08-24T16:26:22.024Z,6.20
2018-08-24T16:28:51.378Z,6.20
2018-08-24T16:31:23.035Z,6.20
2018-08-24T16:33:52.331Z,5.57
2018-08-24T16:36:20.980Z,5.33
2018-08-24T16:38:49.551Z,5.40
2018-08-24T16:41:18.070Z,5.27
2018-08-24T16:43:46.595Z,6.03
2018-08-24T16:46:15.167Z,5.23
2018-08-24T16:48:43.894Z,5.37
2018-08-24T16:51:12.554Z,5.77
2018-08-24T16:53:41.173Z,5.37
2018-08-24T16:56:09.805Z,5.80
2018-08-24T16:58:38.463Z,5.60
2018-08-24T17:01:07.178Z,5.33
2018-08-24T17:03:36.121Z,5.57
2018-08-24T17:06:04.812Z,5.07
2018-08-24T17:08:33.567Z,5.73
2018-08-24T17:11:02.189Z,5.67
2018-08-24T17:13:30.724Z,5.60
2018-08-24T17:15:59.260Z,6.07
2018-08-24T17:18:27.978Z,5.10
2018-08-24T17:20:56.770Z,5.53
2018-08-24T17:23:25.308Z,5.87
2018-08-24T17:25:53.873Z,6.03
2018-08-24T17:28:22.406Z,5.80
2018-08-24T17:30:51.476Z,5.67
2018-08-24T17:33:20.026Z,5.23
2018-08-24T17:35:48.637Z,5.80
2018-08-24T17:38:17.184Z,5.83
2018-08-24T17:40:45.711Z,5.73
2018-08-24T17:43:14.326Z,5.40
2018-08-24T17:45:43.315Z,5.30
2018-08-24T17:48:11.980Z,5.60
2018-08-24T17:50:40.624Z,5.30
2018-08-24T17:53:09.808Z,6.40
2018-08-24T17:55:38.468Z,5.53
2018-08-24T17:58:06.989Z,5.10
2018-08-24T18:00:36.262Z,5.83
2018-08-24T18:03:04.905Z,5.10
2018-08-24T18:05:34.936Z,5.60
2018-08-24T18:08:03.756Z,5.23
2018-08-24T18:10:32.273Z,5.53
2018-08-24T18:13:00.930Z,5.03
2018-08-24T18:15:29.601Z,5.20
2018-08-24T18:17:58.231Z,5.50
2018-08-24T18:20:27.103Z,6.00
2018-08-24T18:22:56.001Z,5.40
2018-08-24T18:25:24.497Z,5.07
2018-08-24T18:27:53.036Z,5.23
2018-08-24T18:30:21.639Z,5.80
2018-08-24T18:32:50.644Z,5.73
2018-08-24T18:35:19.410Z,5.60
2018-08-24T18:37:47.911Z,5.37
2018-08-24T18:40:16.489Z,5.80
2018-08-24T18:42:45.122Z,4.90
2018-08-24T18:45:13.714Z,5.03
2018-08-24T18:47:42.247Z,5.67
2018-08-24T18:50:10.769Z,5.47
2018-08-24T18:52:39.245Z,5.00
2018-08-24T18:55:08.186Z,5.50
2018-08-24T18:57:36.710Z,5.73
2018-08-24T19:00:05.366Z,6.57
2018-08-24T19:02:34.047Z,5.67
2018-08-24T19:05:02.619Z,5.37
2018-08-24T19:07:31.130Z,5.50
2018-08-24T19:09:59.784Z,5.73
2018-08-24T19:12:29.566Z,5.27
2018-08-24T19:14:59.267Z,5.80
2018-08-24T19:17:33.161Z,6.10
2018-08-24T19:20:06.896Z,5.70
2018-08-24T19:22:35.696Z,5.60
2018-08-24T19:25:04.662Z,6.07
2018-08-24T19:27:38.351Z,5.53
2018-08-24T19:30:12.135Z,5.20
2018-08-24T19:32:40.748Z,5.60
2018-08-24T19:35:09.272Z,5.87
2018-08-24T19:37:37.889Z,6.20
2018-08-24T19:40:12.399Z,5.90
2018-08-24T19:42:40.982Z,6.30
2018-08-24T19:45:10.533Z,6.60
2018-08-24T19:47:44.156Z,6.00
2018-08-24T19:50:12.893Z,6.63
2018-08-24T19:52:41.554Z,5.93
2018-08-24T19:55:10.269Z,6.37
2018-08-24T19:57:44.186Z,6.10
2018-08-24T20:00:12.923Z,6.47
2018-08-24T20:02:41.769Z,5.67
2018-08-24T20:05:10.392Z,6.47
2018-08-24T20:07:44.226Z,5.60
2018-08-24T20:10:16.247Z,6.13
2018-08-24T20:12:45.502Z,6.47
2018-08-24T20:15:19.706Z,5.53
2018-08-24T20:17:48.299Z,6.37
2018-08-24T20:20:16.920Z,6.03
2018-08-24T20:22:45.454Z,6.07
2018-08-24T20:25:14.330Z,6.17
2018-08-24T20:27:43.050Z,5.50
2018-08-24T20:30:12.307Z,6.67
2018-08-24T20:32:40.877Z,5.70
2018-08-24T20:35:09.427Z,6.53
2018-08-24T20:37:37.990Z,5.97
2018-08-24T20:40:06.870Z,6.07
2018-08-24T20:42:35.703Z,6.57
2018-08-24T20:45:04.570Z,6.13
2018-08-24T20:47:33.201Z,6.83
2018-08-24T20:50:01.774Z,6.37
2018-08-24T20:52:30.366Z,6.47
2018-08-24T20:54:58.971Z,6.13
2018-08-24T20:57:27.487Z,7.13
2018-08-24T20:59:56.430Z,6.27
2018-08-24T21:02:25.064Z,6.13
2018-08-24T21:04:53.664Z,5.87
2018-08-24T21:07:22.259Z,6.53
2018-08-24T21:09:50.923Z,5.63
2018-08-24T21:12:19.616Z,6.23
2018-08-24T21:14:48.206Z,6.00
2018-08-24T21:17:16.721Z,6.57
2018-08-24T21:19:45.311Z,5.87
2018-08-24T21:22:14.489Z,5.80
2018-08-24T21:24:43.191Z,5.73
2018-08-24T21:27:11.978Z,5.87
2018-08-24T21:29:40.508Z,5.40
2018-08-24T21:32:09.129Z,5.73
2018-08-24T21:34:37.641Z,6.40
2018-08-24T21:37:06.646Z,5.60
2018-08-24T21:39:35.294Z,5.50
2018-08-24T21:42:04.111Z,5.63
2018-08-24T21:44:32.694Z,5.87
2018-08-24T21:47:01.272Z,6.20
2018-08-24T21:49:29.805Z,5.20
2018-08-24T21:51:58.737Z,5.30
2018-08-24T21:54:27.490Z,5.30
2018-08-24T21:56:56.280Z,5.60
2018-08-24T21:59:24.809Z,5.87
2018-08-24T22:01:53.782Z,5.33
2018-08-24T22:04:22.278Z,5.20
2018-08-24T22:06:50.970Z,5.10
2018-08-24T22:09:19.695Z,5.50
2018-08-24T22:11:48.319Z,5.50
2018-08-24T22:14:16.868Z,5.13
2018-08-24T22:16:45.455Z,6.03
2018-08-24T22:19:14.201Z,5.07
2018-08-24T22:21:42.898Z,5.20
2018-08-24T22:24:12.318Z,4.70
2018-08-24T22:26:40.883Z,4.87
2018-08-24T22:29:09.410Z,5.07
2018-08-24T22:31:37.924Z,4.83
2018-08-24T22:34:06.607Z,5.50
2018-08-24T22:36:35.288Z,4.70
2018-08-24T22:39:05.208Z,5.90
2018-08-24T22:41:34.009Z,4.93
2018-08-24T22:44:02.540Z,5.10
2018-08-24T22:46:31.411Z,5.20
2018-08-24T22:48:59.947Z,5.13
2018-08-24T22:51:28.569Z,4.90
2018-08-24T22:53:57.282Z,5.70
2018-08-24T22:56:25.843Z,5.10
2018-08-24T22:58:54.503Z,5.23
2018-08-24T23:01:23.077Z,4.90
2018-08-24T23:03:51.677Z,5.30
2018-08-24T23:06:20.301Z,4.83
2018-08-24T23:08:48.945Z,4.60
2018-08-24T23:11:17.447Z,4.90
2018-08-24T23:13:46.028Z,4.90
2018-08-24T23:16:14.753Z,4.80
2018-08-24T23:18:43.436Z,4.67
2018-08-24T23:21:12.135Z,5.10
2018-08-24T23:23:40.659Z,4.73
2018-08-24T23:26:09.203Z,5.20
2018-08-24T23:28:37.712Z,5.23
2018-08-24T23:31:06.504Z,4.60
2018-08-24T23:33:35.271Z,4.70
2018-08-24T23:36:03.919Z,4.73
2018-08-24T23:38:32.450Z,5.13
2018-08-24T23:41:00.976Z,5.23
2018-08-24T23:43:29.568Z,4.23
2018-08-24T23:45:58.256Z,4.60
2018-08-24T23:48:26.981Z,4.87
2018-08-24T23:50:55.483Z,4.63
2018-08-24T23:53:24.008Z,4.67
2018-08-24T23:55:52.525Z,4.57
2018-08-24T23:58:21.361Z,4.60
